createdAt,value
2022-11-21T00:00:17.720Z,100.00
2022-11-21T00:02:45.775Z,100.00
2022-11-21T00:05:13.847Z,100.00
2022-11-21T00:07:42.043Z,100.00
2022-11-21T00:10:10.693Z,100.00
2022-11-21T00:12:38.721Z,100.00
2022-11-21T00:15:09.194Z,100.00
2022-11-21T00:17:37.211Z,100.00
2022-11-21T00:20:05.821Z,100.00
2022-11-21T00:22:33.969Z,100.00
2022-11-21T00:25:02.257Z,100.00
2022-11-21T00:27:30.323Z,100.00
2022-11-21T00:29:58.697Z,100.00
2022-11-21T00:32:28.596Z,100.00
2022-11-21T00:34:56.802Z,100.00
2022-11-21T00:37:24.762Z,100.00
2022-11-21T00:39:52.774Z,100.00
2022-11-21T00:42:20.735Z,100.00
2022-11-21T00:44:48.771Z,100.00
2022-11-21T00:47:17.016Z,100.00
2022-11-21T00:49:46.625Z,100.00
2022-11-21T00:52:15.160Z,100.00
2022-11-21T00:54:43.201Z,100.00
2022-11-21T00:57:11.414Z,100.00
2022-11-21T00:59:40.106Z,100.00
2022-11-21T01:02:08.234Z,100.00
2022-11-21T01:04:36.629Z,100.00
2022-11-21T01:07:06.154Z,100.00
2022-11-21T01:09:34.214Z,100.00
2022-11-21T01:12:02.251Z,100.00
2022-11-21T01:14:30.531Z,100.00
2022-11-21T01:16:58.584Z,100.00
2022-11-21T01:19:26.773Z,100.00
2022-11-21T01:21:54.828Z,100.00
2022-11-21T01:24:24.401Z,100.00
2022-11-21T01:26:54.273Z,100.00
2022-11-21T01:29:22.489Z,100.00
2022-11-21T01:31:50.700Z,100.00
2022-11-21T01:34:18.790Z,100.00
2022-11-21T01:36:47.083Z,100.00
2022-11-21T01:39:15.123Z,100.00
2022-11-21T01:41:46.454Z,100.00
2022-11-21T01:44:20.341Z,100.00
2022-11-21T01:46:48.871Z,100.00
2022-11-21T01:49:19.410Z,100.00
2022-11-21T01:51:54.304Z,100.00
2022-11-21T01:54:27.183Z,100.00
2022-11-21T01:57:03.332Z,100.00
2022-11-21T01:59:34.519Z,100.00
2022-11-21T02:02:05.233Z,100.00
2022-11-21T02:04:35.243Z,100.00
2022-11-21T02:07:07.821Z,100.00
2022-11-21T02:09:40.413Z,100.00
2022-11-21T02:12:15.162Z,100.00
2022-11-21T02:14:44.743Z,100.00
2022-11-21T02:17:13.363Z,100.00
2022-11-21T02:19:51.657Z,100.00
2022-11-21T02:22:28.769Z,100.00
2022-11-21T02:25:05.087Z,100.00
2022-11-21T02:27:33.414Z,100.00
2022-11-21T02:30:02.950Z,100.00
2022-11-21T02:32:35.188Z,100.00
2022-11-21T02:35:03.565Z,100.00
2022-11-21T02:37:33.107Z,100.00
2022-11-21T02:40:07.854Z,100.00
2022-11-21T02:42:41.333Z,100.00
2022-11-21T02:45:15.493Z,100.00
2022-11-21T02:47:46.388Z,100.00
2022-11-21T02:50:17.899Z,100.00
2022-11-21T02:52:46.179Z,100.00
2022-11-21T02:55:16.508Z,100.00
2022-11-21T02:57:44.701Z,100.00
2022-11-21T03:00:13.741Z,100.00
2022-11-21T03:02:41.968Z,100.00
2022-11-21T03:05:12.841Z,100.00
2022-11-21T03:07:40.927Z,100.00
2022-11-21T03:10:10.009Z,100.00
2022-11-21T03:12:39.722Z,100.00
2022-11-21T03:15:11.166Z,100.00
2022-11-21T03:17:39.314Z,100.00
2022-11-21T03:20:08.593Z,100.00
2022-11-21T03:22:37.030Z,100.00
2022-11-21T03:25:06.231Z,100.00
2022-11-21T03:27:34.312Z,100.00
2022-11-21T03:30:03.820Z,100.00
2022-11-21T03:32:31.988Z,100.00
2022-11-21T03:35:00.252Z,100.00
2022-11-21T03:37:28.249Z,100.00
2022-11-21T03:39:56.515Z,100.00
2022-11-21T03:42:24.498Z,100.00
2022-11-21T03:44:52.514Z,100.00
2022-11-21T03:47:22.784Z,100.00
2022-11-21T03:49:50.814Z,100.00
2022-11-21T03:52:18.859Z,100.00
2022-11-21T03:54:46.931Z,100.00
2022-11-21T03:57:14.984Z,100.00
2022-11-21T03:59:43.047Z,100.00
2022-11-21T04:02:11.039Z,100.00
2022-11-21T04:04:40.503Z,100.00
2022-11-21T04:07:08.673Z,100.00
2022-11-21T04:09:36.789Z,100.00
2022-11-21T04:12:07.652Z,100.00
2022-11-21T04:14:36.200Z,100.00
2022-11-21T04:17:04.359Z,100.00
2022-11-21T04:19:32.445Z,100.00
2022-11-21T04:22:01.923Z,100.00
2022-11-21T04:24:30.462Z,100.00
2022-11-21T04:26:58.943Z,100.00
2022-11-21T04:29:26.974Z,100.00
2022-11-21T04:31:55.055Z,100.00
2022-11-21T04:34:23.556Z,100.00
2022-11-21T04:36:51.539Z,100.00
2022-11-21T04:39:21.133Z,100.00
2022-11-21T04:41:49.221Z,100.00
2022-11-21T04:44:17.970Z,100.00
2022-11-21T04:46:46.318Z,100.00
2022-11-21T04:49:14.458Z,100.00
2022-11-21T04:51:42.557Z,100.00
2022-11-21T04:54:12.060Z,100.00
2022-11-21T04:56:41.590Z,100.00
2022-11-21T04:59:12.099Z,100.00
2022-11-21T05:01:40.275Z,100.00
2022-11-21T05:04:08.293Z,100.00
2022-11-21T05:06:36.379Z,100.00
2022-11-21T05:09:04.494Z,100.00
2022-11-21T05:11:50.309Z,100.00
2022-11-21T05:14:19.824Z,100.00
2022-11-21T05:16:47.891Z,100.00
2022-11-21T05:19:16.369Z,100.00
2022-11-21T05:21:45.544Z,100.00
2022-11-21T05:24:13.601Z,100.00
2022-11-21T05:26:41.744Z,100.00
2022-11-21T05:29:09.847Z,100.00
2022-11-21T05:31:41.493Z,100.00
2022-11-21T05:34:09.776Z,100.00
2022-11-21T05:36:37.826Z,100.00
2022-11-21T05:39:05.793Z,100.00
2022-11-21T05:41:34.123Z,100.00
2022-11-21T05:44:01.130Z,100.00
2022-11-21T05:46:29.565Z,100.00
2022-11-21T05:48:59.596Z,100.00
2022-11-21T05:51:28.852Z,100.00
2022-11-21T05:53:56.933Z,100.00
2022-11-21T05:56:25.046Z,100.00
2022-11-21T05:58:53.324Z,100.00
2022-11-21T06:01:41.413Z,100.00
2022-11-21T06:04:11.003Z,100.00
2022-11-21T06:06:39.125Z,100.00
2022-11-21T06:09:07.292Z,100.00
2022-11-21T06:11:35.294Z,100.00
2022-11-21T06:14:03.387Z,100.00
2022-11-21T06:16:31.725Z,100.00
2022-11-21T06:19:00.102Z,100.00
2022-11-21T06:21:30.547Z,100.00
2022-11-21T06:24:00.027Z,100.00
2022-11-21T06:26:29.150Z,100.00
2022-11-21T06:28:57.193Z,100.00
2022-11-21T06:31:26.803Z,100.00
2022-11-21T06:33:56.147Z,100.00
2022-11-21T06:36:24.604Z,100.00
2022-11-21T06:38:55.463Z,100.00
2022-11-21T06:41:24.916Z,100.00
2022-11-21T06:43:53.138Z,100.00
2022-11-21T06:46:21.225Z,100.00
2022-11-21T06:48:49.456Z,100.00
2022-11-21T06:51:20.357Z,100.00
2022-11-21T06:53:55.930Z,100.00
2022-11-21T06:56:26.062Z,100.00
2022-11-21T06:58:56.445Z,100.00
2022-11-21T07:01:24.914Z,100.00
2022-11-21T07:03:54.134Z,100.00
2022-11-21T07:06:22.503Z,100.00
2022-11-21T07:09:17.686Z,100.00
2022-11-21T07:11:43.409Z,100.00
2022-11-21T07:14:11.127Z,100.00
2022-11-21T07:16:39.688Z,100.00
2022-11-21T07:19:07.899Z,100.00
2022-11-21T07:21:36.124Z,100.00
2022-11-21T07:24:04.441Z,100.00
2022-11-21T07:26:32.503Z,100.00
2022-11-21T07:29:02.346Z,100.00
2022-11-21T07:31:31.124Z,100.00
2022-11-21T07:33:59.730Z,100.00
2022-11-21T07:36:33.631Z,100.00
2022-11-21T07:39:03.478Z,100.00
2022-11-21T07:41:31.562Z,100.00
2022-11-21T07:44:01.379Z,100.00
2022-11-21T07:46:30.067Z,100.00
2022-11-21T07:49:02.918Z,100.00
2022-11-21T07:51:31.791Z,100.00
2022-11-21T07:54:02.340Z,100.00
2022-11-21T07:56:30.388Z,100.00
2022-11-21T07:58:58.572Z,100.00
2022-11-21T08:01:28.248Z,100.00
2022-11-21T08:03:56.813Z,100.00
2022-11-21T08:06:25.171Z,100.00
2022-11-21T08:08:54.328Z,100.00
2022-11-21T08:11:22.530Z,100.00
2022-11-21T08:13:50.620Z,100.00
2022-11-21T08:16:18.670Z,100.00
2022-11-21T08:18:48.056Z,100.00
2022-11-21T08:21:19.847Z,100.00
2022-11-21T08:23:48.348Z,100.00
2022-11-21T08:26:17.863Z,100.00
2022-11-21T08:28:47.282Z,100.00
2022-11-21T08:31:17.191Z,100.00
2022-11-21T08:33:45.772Z,100.00
2022-11-21T08:36:15.546Z,100.00
2022-11-21T08:38:43.638Z,100.00
2022-11-21T08:41:31.132Z,100.00
2022-11-21T08:43:59.337Z,100.00
2022-11-21T08:46:28.480Z,100.00
2022-11-21T08:48:57.240Z,100.00
2022-11-21T08:51:26.830Z,100.00
2022-11-21T08:53:54.863Z,100.00
2022-11-21T08:56:22.978Z,100.00
2022-11-21T08:58:51.195Z,100.00
2022-11-21T09:01:19.395Z,100.00
2022-11-21T09:03:47.559Z,100.00
2022-11-21T09:06:15.657Z,100.00
2022-11-21T09:08:45.122Z,100.00
2022-11-21T09:11:13.219Z,100.00
2022-11-21T09:13:41.318Z,100.00
2022-11-21T09:16:29.864Z,100.00
2022-11-21T09:18:58.036Z,97.32
2022-11-21T09:21:26.087Z,97.15
2022-11-21T09:23:55.609Z,88.93
2022-11-21T09:26:23.801Z,80.59
2022-11-21T09:28:51.905Z,85.93
2022-11-21T09:31:20.013Z,89.15
2022-11-21T09:33:53.561Z,85.95
2022-11-21T09:36:22.953Z,88.29
2022-11-21T09:38:54.113Z,83.46
2022-11-21T09:41:49.406Z,84.77
2022-11-21T09:44:37.314Z,83.96
2022-11-21T09:47:13.069Z,78.11
2022-11-21T09:49:47.075Z,78.47
2022-11-21T09:52:19.418Z,75.52
2022-11-21T09:54:51.374Z,69.92
2022-11-21T09:57:25.027Z,68.14
2022-11-21T09:59:53.965Z,65.58
2022-11-21T10:02:24.342Z,61.22
2022-11-21T10:04:53.719Z,59.83
2022-11-21T10:07:27.230Z,60.51
2022-11-21T10:10:38.870Z,59.87
2022-11-21T10:13:20.447Z,59.19
2022-11-21T10:15:59.424Z,57.36
2022-11-21T10:18:58.363Z,56.56
2022-11-21T10:21:59.203Z,58.38
2022-11-21T10:24:40.753Z,55.02
2022-11-21T10:27:15.383Z,54.10
2022-11-21T10:29:53.395Z,53.94
2022-11-21T10:32:25.907Z,54.64
2022-11-21T10:35:00.140Z,54.24
2022-11-21T10:37:36.951Z,57.62
2022-11-21T10:40:17.245Z,59.37
2022-11-21T10:42:53.363Z,63.38
2022-11-21T10:45:22.967Z,66.33
2022-11-21T10:47:53.218Z,68.45
2022-11-21T10:50:39.648Z,71.23
2022-11-21T10:53:34.028Z,72.03
2022-11-21T10:56:05.891Z,74.37
2022-11-21T10:58:45.597Z,75.15
2022-11-21T11:01:24.312Z,75.35
2022-11-21T11:04:43.760Z,75.13
2022-11-21T11:07:22.567Z,74.18
2022-11-21T11:09:52.459Z,75.42
2022-11-21T11:12:50.066Z,75.91
2022-11-21T11:15:26.524Z,77.30
2022-11-21T11:18:05.566Z,75.16
2022-11-21T11:20:39.886Z,75.12
2022-11-21T11:23:18.388Z,75.59
2022-11-21T11:25:48.517Z,74.85
2022-11-21T11:28:16.542Z,74.15
2022-11-21T11:30:45.185Z,74.92
2022-11-21T11:33:36.813Z,74.03
2022-11-21T11:36:15.233Z,74.88
2022-11-21T11:38:48.216Z,76.23
2022-11-21T11:41:52.575Z,74.39
2022-11-21T11:44:47.045Z,73.40
2022-11-21T11:47:32.643Z,74.55
2022-11-21T11:50:15.672Z,73.62
2022-11-21T11:52:58.550Z,76.09
2022-11-21T11:55:37.266Z,75.60
2022-11-21T11:58:12.910Z,75.24
2022-11-21T12:00:47.045Z,72.91
2022-11-21T12:03:20.970Z,72.18
2022-11-21T12:06:07.486Z,72.88
2022-11-21T12:08:45.133Z,73.03
2022-11-21T12:11:52.158Z,73.21
2022-11-21T12:14:51.462Z,74.04
2022-11-21T12:17:23.036Z,74.12
2022-11-21T12:19:54.024Z,74.77
2022-11-21T12:22:24.015Z,74.49
2022-11-21T12:24:52.201Z,74.75
2022-11-21T12:27:30.896Z,74.14
2022-11-21T12:30:31.479Z,74.58
2022-11-21T12:33:08.783Z,73.67
2022-11-21T12:36:18.461Z,72.93
2022-11-21T12:39:28.344Z,72.38
2022-11-21T12:42:23.152Z,73.05
2022-11-21T12:45:05.056Z,72.05
2022-11-21T12:48:15.462Z,71.95
2022-11-21T12:51:12.155Z,71.50
2022-11-21T12:54:07.658Z,72.01
2022-11-21T12:56:47.625Z,73.16
2022-11-21T12:59:17.138Z,73.41
2022-11-21T13:01:55.417Z,74.77
2022-11-21T13:04:29.906Z,74.80
2022-11-21T13:07:00.043Z,74.23
2022-11-21T13:09:31.791Z,73.99
2022-11-21T13:12:06.515Z,72.96
2022-11-21T13:14:49.110Z,72.25
2022-11-21T13:17:30.047Z,72.40
2022-11-21T13:20:00.884Z,72.37
2022-11-21T13:22:55.007Z,73.36
2022-11-21T13:25:48.243Z,73.14
2022-11-21T13:28:33.487Z,71.96
2022-11-21T13:31:24.842Z,73.22
2022-11-21T13:33:53.850Z,73.17
2022-11-21T13:36:52.160Z,74.67
2022-11-21T13:39:31.624Z,75.66
2022-11-21T13:42:22.238Z,76.68
2022-11-21T13:44:51.353Z,77.67
2022-11-21T13:48:06.786Z,76.07
2022-11-21T13:51:22.435Z,75.87
2022-11-21T13:54:15.574Z,75.38
2022-11-21T13:57:01.513Z,75.33
2022-11-21T13:59:51.628Z,75.68
2022-11-21T14:02:40.053Z,76.85
2022-11-21T14:05:41.489Z,76.69
2022-11-21T14:08:18.534Z,76.89
2022-11-21T14:10:47.371Z,77.36
2022-11-21T14:13:28.133Z,78.51
2022-11-21T14:16:19.258Z,77.85
2022-11-21T14:18:48.232Z,77.67
2022-11-21T14:21:22.263Z,79.28
2022-11-21T14:23:51.915Z,78.38
2022-11-21T14:26:22.049Z,79.63
2022-11-21T14:28:50.071Z,79.34
2022-11-21T14:31:18.700Z,80.31
2022-11-21T14:33:48.038Z,80.50
2022-11-21T14:36:18.541Z,79.77
2022-11-21T14:39:02.180Z,79.98
2022-11-21T14:41:41.593Z,80.91
2022-11-21T14:44:21.379Z,80.61
2022-11-21T14:46:50.574Z,81.32
2022-11-21T14:49:30.403Z,82.04
2022-11-21T14:52:16.544Z,82.90
2022-11-21T14:55:13.430Z,83.62
2022-11-21T14:57:44.594Z,83.21
2022-11-21T15:00:43.376Z,83.70
2022-11-21T15:03:05.882Z,83.97
2022-11-21T15:08:55.785Z,84.32
2022-11-21T15:11:14.360Z,84.16
2022-11-21T15:14:12.323Z,84.83
2022-11-21T15:16:35.190Z,85.03
2022-11-21T15:19:09.719Z,83.94
2022-11-21T15:21:38.164Z,84.29
2022-11-21T15:24:18.275Z,84.17
2022-11-21T15:26:47.409Z,83.63
2022-11-21T15:29:22.230Z,84.15
2022-11-21T15:32:08.696Z,84.04
2022-11-21T15:34:38.721Z,83.88
2022-11-21T15:37:13.496Z,83.74
2022-11-21T15:39:45.472Z,83.33
2022-11-21T15:42:38.738Z,83.16
2022-11-21T15:45:26.676Z,83.05
2022-11-21T15:47:55.994Z,83.35
2022-11-21T15:50:26.385Z,83.75
2022-11-21T15:52:54.772Z,84.21
2022-11-21T15:55:26.512Z,84.08
2022-11-21T15:57:54.505Z,85.37
2022-11-21T16:00:23.009Z,85.47
2022-11-21T16:02:52.536Z,86.76
2022-11-21T16:05:20.622Z,87.03
2022-11-21T16:07:48.919Z,87.23
2022-11-21T16:10:24.384Z,88.05
2022-11-21T16:12:55.400Z,88.33
2022-11-21T16:15:23.663Z,88.34
2022-11-21T16:17:54.196Z,86.58
2022-11-21T16:20:22.415Z,85.90
2022-11-21T16:22:53.426Z,84.25
2022-11-21T16:25:21.682Z,85.55
2022-11-21T16:27:49.938Z,85.39
2022-11-21T16:30:19.187Z,84.45
2022-11-21T16:32:47.287Z,84.67
2022-11-21T16:35:17.052Z,85.80
2022-11-21T16:37:45.160Z,86.79
2022-11-21T16:40:14.099Z,87.25
2022-11-21T16:42:42.268Z,88.62
2022-11-21T16:45:12.033Z,88.88
2022-11-21T16:47:43.092Z,89.89
2022-11-21T16:50:17.231Z,91.56
2022-11-21T16:52:45.367Z,91.24
2022-11-21T16:55:13.339Z,91.48
2022-11-21T16:57:43.320Z,91.39
2022-11-21T17:00:13.089Z,91.91
2022-11-21T17:02:41.385Z,90.65
2022-11-21T17:05:10.128Z,90.18
2022-11-21T17:07:39.799Z,89.99
2022-11-21T17:10:08.861Z,89.07
2022-11-21T17:12:39.030Z,89.61
2022-11-21T17:15:10.564Z,90.35
2022-11-21T17:17:38.767Z,91.33
2022-11-21T17:20:09.500Z,92.28
2022-11-21T17:22:37.620Z,92.98
2022-11-21T17:25:08.199Z,94.05
2022-11-21T17:27:36.429Z,94.68
2022-11-21T17:30:04.827Z,95.74
2022-11-21T17:32:32.920Z,96.73
2022-11-21T17:35:00.996Z,97.34
2022-11-21T17:37:29.075Z,97.97
2022-11-21T17:39:57.153Z,99.07
2022-11-21T17:42:28.523Z,99.77
2022-11-21T17:44:56.706Z,100.00
2022-11-21T17:47:24.730Z,100.00
2022-11-21T17:49:52.816Z,100.00
2022-11-21T17:52:20.967Z,100.00
2022-11-21T17:54:51.548Z,100.00
2022-11-21T17:57:20.129Z,100.00
2022-11-21T17:59:49.744Z,100.00
2022-11-21T18:02:20.597Z,100.00
2022-11-21T18:04:49.430Z,100.00
2022-11-21T18:07:17.621Z,100.00
2022-11-21T18:09:45.778Z,100.00
2022-11-21T18:12:14.401Z,100.00
2022-11-21T18:14:42.539Z,100.00
2022-11-21T18:17:12.021Z,100.00
2022-11-21T18:19:40.852Z,100.00
2022-11-21T18:22:08.998Z,100.00
2022-11-21T18:24:37.253Z,100.00
2022-11-21T18:27:05.723Z,100.00
2022-11-21T18:29:36.620Z,100.00
2022-11-21T18:32:06.096Z,100.00
2022-11-21T18:34:38.098Z,100.00
2022-11-21T18:37:06.673Z,100.00
2022-11-21T18:39:35.556Z,100.00
2022-11-21T18:42:07.102Z,100.00
2022-11-21T18:44:35.382Z,100.00
2022-11-21T18:47:16.101Z,100.00
2022-11-21T18:49:49.723Z,100.00
2022-11-21T18:52:17.882Z,100.00
2022-11-21T18:54:47.059Z,100.00
2022-11-21T18:57:15.304Z,100.00
2022-11-21T18:59:43.467Z,99.12
2022-11-21T19:02:13.152Z,97.22
2022-11-21T19:04:41.802Z,95.46
2022-11-21T19:07:11.530Z,95.21
2022-11-21T19:09:40.335Z,93.75
2022-11-21T19:12:08.857Z,93.74
2022-11-21T19:14:36.869Z,95.06
2022-11-21T19:17:05.177Z,93.78
2022-11-21T19:19:35.856Z,94.03
2022-11-21T19:22:05.896Z,94.49
2022-11-21T19:24:41.344Z,90.70
2022-11-21T19:27:09.852Z,90.47
2022-11-21T19:29:37.992Z,89.67
2022-11-21T19:32:06.493Z,90.48
2022-11-21T19:34:34.591Z,90.50
2022-11-21T19:37:02.784Z,90.89
2022-11-21T19:39:31.626Z,91.70
2022-11-21T19:42:01.303Z,92.11
2022-11-21T19:44:29.378Z,90.45
2022-11-21T19:46:57.549Z,91.01
2022-11-21T19:49:25.834Z,91.34
2022-11-21T19:51:53.893Z,91.41
2022-11-21T19:54:22.037Z,91.13
2022-11-21T19:56:50.049Z,90.95
2022-11-21T19:59:20.057Z,92.14
2022-11-21T20:01:52.412Z,93.62
2022-11-21T20:04:21.722Z,93.65
2022-11-21T20:06:50.256Z,93.65
2022-11-21T20:09:20.290Z,93.02
2022-11-21T20:11:50.449Z,92.62
2022-11-21T20:14:23.178Z,91.70
2022-11-21T20:16:53.297Z,92.02
2022-11-21T20:19:24.124Z,92.33
2022-11-21T20:21:53.055Z,91.20
2022-11-21T20:24:21.195Z,90.47
2022-11-21T20:26:49.460Z,88.97
2022-11-21T20:29:17.580Z,88.62
2022-11-21T20:31:48.395Z,88.24
2022-11-21T20:37:03.313Z,87.84
2022-11-21T20:39:32.313Z,87.95
2022-11-21T20:42:01.900Z,88.37
2022-11-21T20:47:20.586Z,88.41
2022-11-21T20:53:49.564Z,89.59
2022-11-21T20:55:05.501Z,89.82
2022-11-21T20:57:33.533Z,89.84
2022-11-21T21:00:03.959Z,89.74
2022-11-21T21:02:33.378Z,88.75
2022-11-21T21:05:01.609Z,88.73
2022-11-21T21:07:29.895Z,87.38
2022-11-21T21:09:59.943Z,87.49
2022-11-21T21:12:29.587Z,88.26
2022-11-21T21:14:57.702Z,88.81
2022-11-21T21:17:25.853Z,89.76
2022-11-21T21:19:55.201Z,89.88
2022-11-21T21:22:26.262Z,89.68
2022-11-21T21:24:54.336Z,89.42
2022-11-21T21:27:22.621Z,87.90
2022-11-21T21:29:50.739Z,88.31
2022-11-21T21:32:18.873Z,87.72
2022-11-21T21:34:46.878Z,87.90
2022-11-21T21:37:16.269Z,87.67
2022-11-21T21:39:44.464Z,87.47
2022-11-21T21:42:12.552Z,88.13
2022-11-21T21:44:40.726Z,87.82
2022-11-21T21:47:11.303Z,88.65
2022-11-21T21:49:39.496Z,88.29
2022-11-21T21:52:07.919Z,88.63
2022-11-21T21:54:37.301Z,89.33
2022-11-21T21:57:05.851Z,88.73
2022-11-21T21:59:34.121Z,89.41
2022-11-21T22:02:02.264Z,89.69
2022-11-21T22:04:32.285Z,89.80
2022-11-21T22:07:00.722Z,90.27
2022-11-21T22:09:28.953Z,90.86
2022-11-21T22:11:58.582Z,90.92
2022-11-21T22:14:26.878Z,91.12
2022-11-21T22:16:55.093Z,91.87
2022-11-21T22:19:23.516Z,91.74
2022-11-21T22:21:51.609Z,92.54
2022-11-21T22:24:27.453Z,93.00
2022-11-21T22:26:56.022Z,93.60
2022-11-21T22:29:25.702Z,93.70
2022-11-21T22:31:53.851Z,93.57
2022-11-21T22:34:22.098Z,93.06
2022-11-21T22:36:50.140Z,92.91
2022-11-21T22:39:18.220Z,92.81
2022-11-21T22:41:46.298Z,91.69
2022-11-21T22:44:14.505Z,91.12
2022-11-21T22:46:43.908Z,90.42
2022-11-21T22:49:12.009Z,90.97
2022-11-21T22:51:40.128Z,90.35
2022-11-21T22:54:08.240Z,91.18
2022-11-21T22:56:36.902Z,91.22
2022-11-21T22:59:05.493Z,91.55
2022-11-21T23:01:35.122Z,91.81
2022-11-21T23:04:04.808Z,90.36
2022-11-21T23:06:32.917Z,89.85
2022-11-21T23:09:00.943Z,88.96
2022-11-21T23:11:37.819Z,88.68
2022-11-21T23:14:08.013Z,88.52
2022-11-21T23:16:36.220Z,87.34
2022-11-21T23:19:05.986Z,86.87
2022-11-21T23:21:34.170Z,86.46
2022-11-21T23:24:02.238Z,85.48
2022-11-21T23:26:30.237Z,84.27
2022-11-21T23:29:01.231Z,84.25
2022-11-21T23:31:31.784Z,83.69
2022-11-21T23:33:59.774Z,83.26
2022-11-21T23:36:29.319Z,83.55
2022-11-21T23:38:57.477Z,83.41
2022-11-21T23:41:25.514Z,83.28
2022-11-21T23:43:53.542Z,83.47
2022-11-21T23:46:21.643Z,83.94
2022-11-21T23:48:49.763Z,84.08
2022-11-21T23:51:17.823Z,84.27
2022-11-21T23:53:47.313Z,84.95
2022-11-21T23:56:15.389Z,84.88
2022-11-21T23:58:43.532Z,85.06
